sensor_id;sensor_type;location;lat;lon;timestamp;P1;durP1;ratioP1;P2;durP2;ratioP2
14102;SDS011;7129;48.832;12.472;2022-07-26T00:02:31;7.90;;;7.22;;
14102;SDS011;7129;48.832;12.472;2022-07-26T00:07:34;8.07;;;7.30;;
14102;SDS011;7129;48.832;12.472;2022-07-26T00:12:36;8.48;;;7.13;;
14102;SDS011;7129;48.832;12.472;2022-07-26T00:17:40;7.93;;;6.93;;
14102;SDS011;7129;48.832;12.472;2022-07-26T00:22:43;6.82;;;6.22;;
14102;SDS011;7129;48.832;12.472;2022-07-26T00:27:45;6.80;;;5.85;;
14102;SDS011;7129;48.832;12.472;2022-07-26T00:32:47;6.53;;;5.93;;
14102;SDS011;7129;48.832;12.472;2022-07-26T00:37:50;5.68;;;5.13;;
14102;SDS011;7129;48.832;12.472;2022-07-26T00:42:55;5.05;;;4.65;;
14102;SDS011;7129;48.832;12.472;2022-07-26T00:47:57;4.88;;;4.45;;
14102;SDS011;7129;48.832;12.472;2022-07-26T00:53:07;5.38;;;4.55;;
14102;SDS011;7129;48.832;12.472;2022-07-26T00:58:09;5.07;;;4.68;;
14102;SDS011;7129;48.832;12.472;2022-07-26T01:03:12;4.53;;;4.22;;
14102;SDS011;7129;48.832;12.472;2022-07-26T01:08:15;4.18;;;3.88;;
14102;SDS011;7129;48.832;12.472;2022-07-26T01:13:18;4.00;;;3.70;;
14102;SDS011;7129;48.832;12.472;2022-07-26T01:18:20;4.10;;;3.80;;
14102;SDS011;7129;48.832;12.472;2022-07-26T01:23:23;4.30;;;4.00;;
14102;SDS011;7129;48.832;12.472;2022-07-26T01:28:28;4.38;;;4.07;;
14102;SDS011;7129;48.832;12.472;2022-07-26T01:33:33;4.35;;;3.95;;
14102;SDS011;7129;48.832;12.472;2022-07-26T01:38:36;7.32;;;4.80;;
14102;SDS011;7129;48.832;12.472;2022-07-26T01:43:38;4.63;;;4.28;;
14102;SDS011;7129;48.832;12.472;2022-07-26T01:48:40;4.00;;;3.70;;
14102;SDS011;7129;48.832;12.472;2022-07-26T01:53:44;3.72;;;3.42;;
14102;SDS011;7129;48.832;12.472;2022-07-26T01:58:46;3.90;;;3.60;;
14102;SDS011;7129;48.832;12.472;2022-07-26T02:03:49;4.20;;;3.90;;
14102;SDS011;7129;48.832;12.472;2022-07-26T02:08:52;3.50;;;3.08;;
14102;SDS011;7129;48.832;12.472;2022-07-26T02:13:56;3.67;;;3.22;;
14102;SDS011;7129;48.832;12.472;2022-07-26T02:18:58;3.55;;;3.22;;
14102;SDS011;7129;48.832;12.472;2022-07-26T02:24:01;4.13;;;3.13;;
14102;SDS011;7129;48.832;12.472;2022-07-26T02:29:03;5.00;;;3.03;;
14102;SDS011;7129;48.832;12.472;2022-07-26T02:34:06;3.03;;;2.83;;
14102;SDS011;7129;48.832;12.472;2022-07-26T02:39:10;3.15;;;2.88;;
14102;SDS011;7129;48.832;12.472;2022-07-26T02:44:12;3.33;;;3.10;;
14102;SDS011;7129;48.832;12.472;2022-07-26T02:49:14;3.58;;;3.00;;
14102;SDS011;7129;48.832;12.472;2022-07-26T02:54:17;4.55;;;2.92;;
14102;SDS011;7129;48.832;12.472;2022-07-26T02:59:19;3.58;;;3.28;;
14102;SDS011;7129;48.832;12.472;2022-07-26T03:04:21;3.22;;;2.92;;
14102;SDS011;7129;48.832;12.472;2022-07-26T03:09:24;4.22;;;3.20;;
14102;SDS011;7129;48.832;12.472;2022-07-26T03:14:26;3.35;;;3.08;;
14102;SDS011;7129;48.832;12.472;2022-07-26T03:19:28;3.42;;;3.13;;
14102;SDS011;7129;48.832;12.472;2022-07-26T03:24:31;4.10;;;3.58;;
14102;SDS011;7129;48.832;12.472;2022-07-26T03:29:33;3.80;;;3.53;;
14102;SDS011;7129;48.832;12.472;2022-07-26T03:34:35;4.05;;;3.65;;
14102;SDS011;7129;48.832;12.472;2022-07-26T03:39:38;4.70;;;4.03;;
14102;SDS011;7129;48.832;12.472;2022-07-26T03:44:40;4.68;;;4.07;;
14102;SDS011;7129;48.832;12.472;2022-07-26T03:49:42;4.60;;;4.20;;
14102;SDS011;7129;48.832;12.472;2022-07-26T03:54:45;4.53;;;4.05;;
14102;SDS011;7129;48.832;12.472;2022-07-26T03:59:47;5.10;;;4.35;;
14102;SDS011;7129;48.832;12.472;2022-07-26T04:04:49;4.30;;;3.95;;
14102;SDS011;7129;48.832;12.472;2022-07-26T04:09:52;7.63;;;4.35;;
14102;SDS011;7129;48.832;12.472;2022-07-26T04:14:54;6.82;;;4.30;;
14102;SDS011;7129;48.832;12.472;2022-07-26T04:19:56;4.95;;;4.43;;
14102;SDS011;7129;48.832;12.472;2022-07-26T04:25:00;4.80;;;3.83;;
14102;SDS011;7129;48.832;12.472;2022-07-26T04:30:03;5.78;;;4.80;;
14102;SDS011;7129;48.832;12.472;2022-07-26T04:35:05;4.55;;;3.90;;
14102;SDS011;7129;48.832;12.472;2022-07-26T04:40:10;5.82;;;4.50;;
14102;SDS011;7129;48.832;12.472;2022-07-26T04:45:15;6.75;;;4.53;;
14102;SDS011;7129;48.832;12.472;2022-07-26T04:50:17;4.80;;;4.32;;
14102;SDS011;7129;48.832;12.472;2022-07-26T04:55:22;4.55;;;4.13;;
14102;SDS011;7129;48.832;12.472;2022-07-26T05:00:24;4.28;;;3.88;;
14102;SDS011;7129;48.832;12.472;2022-07-26T05:05:28;4.70;;;4.30;;
14102;SDS011;7129;48.832;12.472;2022-07-26T05:10:33;5.32;;;4.82;;
14102;SDS011;7129;48.832;12.472;2022-07-26T05:15:36;5.30;;;4.57;;
14102;SDS011;7129;48.832;12.472;2022-07-26T05:20:38;5.07;;;4.53;;
14102;SDS011;7129;48.832;12.472;2022-07-26T05:25:42;5.10;;;4.70;;
14102;SDS011;7129;48.832;12.472;2022-07-26T05:30:43;5.60;;;5.10;;
14102;SDS011;7129;48.832;12.472;2022-07-26T05:35:45;6.30;;;5.70;;
14102;SDS011;7129;48.832;12.472;2022-07-26T05:41:02;5.45;;;4.95;;
14102;SDS011;7129;48.832;12.472;2022-07-26T05:46:24;6.65;;;5.35;;
14102;SDS011;7129;48.832;12.472;2022-07-26T05:51:26;7.53;;;6.07;;
14102;SDS011;7129;48.832;12.472;2022-07-26T05:56:30;6.00;;;5.25;;
14102;SDS011;7129;48.832;12.472;2022-07-26T06:01:32;6.10;;;5.53;;
14102;SDS011;7129;48.832;12.472;2022-07-26T06:06:34;5.90;;;5.15;;
14102;SDS011;7129;48.832;12.472;2022-07-26T06:11:38;5.38;;;4.97;;
14102;SDS011;7129;48.832;12.472;2022-07-26T06:16:39;6.20;;;5.60;;
14102;SDS011;7129;48.832;12.472;2022-07-26T06:21:41;6.53;;;5.40;;
14102;SDS011;7129;48.832;12.472;2022-07-26T06:26:46;6.70;;;6.05;;
14102;SDS011;7129;48.832;12.472;2022-07-26T06:31:49;6.45;;;5.85;;
14102;SDS011;7129;48.832;12.472;2022-07-26T07:07:01;7.28;;;6.57;;
14102;SDS011;7129;48.832;12.472;2022-07-26T07:12:47;7.18;;;6.10;;
14102;SDS011;7129;48.832;12.472;2022-07-26T11:59:38;2.08;;;1.58;;
14102;SDS011;7129;48.832;12.472;2022-07-26T12:05:15;4.43;;;2.08;;
14102;SDS011;7129;48.832;12.472;2022-07-26T12:27:39;6.10;;;2.45;;
14102;SDS011;7129;48.832;12.472;2022-07-26T12:44:25;5.43;;;2.20;;
14102;SDS011;7129;48.832;12.472;2022-07-26T13:34:09;2.90;;;1.80;;
14102;SDS011;7129;48.832;12.472;2022-07-26T13:39:14;4.15;;;1.50;;
14102;SDS011;7129;48.832;12.472;2022-07-26T13:44:26;3.53;;;1.98;;
14102;SDS011;7129;48.832;12.472;2022-07-26T13:49:32;3.67;;;1.60;;
14102;SDS011;7129;48.832;12.472;2022-07-26T13:54:38;3.28;;;1.85;;
14102;SDS011;7129;48.832;12.472;2022-07-26T13:59:43;4.68;;;1.90;;
14102;SDS011;7129;48.832;12.472;2022-07-26T14:04:49;2.17;;;1.80;;
14102;SDS011;7129;48.832;12.472;2022-07-26T14:38:48;4.60;;;1.70;;
14102;SDS011;7129;48.832;12.472;2022-07-26T14:44:16;15.52;;;2.25;;
14102;SDS011;7129;48.832;12.472;2022-07-26T14:49:41;4.15;;;1.42;;
14102;SDS011;7129;48.832;12.472;2022-07-26T14:55:15;1.50;;;1.40;;
14102;SDS011;7129;48.832;12.472;2022-07-26T15:00:39;1.92;;;1.20;;
14102;SDS011;7129;48.832;12.472;2022-07-26T15:12:20;2.92;;;1.30;;
14102;SDS011;7129;48.832;12.472;2022-07-26T15:28:54;1.80;;;1.23;;
14102;SDS011;7129;48.832;12.472;2022-07-26T15:33:58;1.95;;;1.08;;
14102;SDS011;7129;48.832;12.472;2022-07-26T15:39:14;1.48;;;1.30;;
14102;SDS011;7129;48.832;12.472;2022-07-26T15:44:49;1.33;;;1.00;;
14102;SDS011;7129;48.832;12.472;2022-07-26T15:50:46;1.08;;;0.98;;
14102;SDS011;7129;48.832;12.472;2022-07-26T15:55:56;2.83;;;1.13;;
14102;SDS011;7129;48.832;12.472;2022-07-26T16:01:11;5.82;;;1.40;;
14102;SDS011;7129;48.832;12.472;2022-07-26T16:06:22;2.58;;;1.20;;
14102;SDS011;7129;48.832;12.472;2022-07-26T16:12:18;6.10;;;1.55;;
14102;SDS011;7129;48.832;12.472;2022-07-26T16:17:37;1.13;;;1.10;;
14102;SDS011;7129;48.832;12.472;2022-07-26T16:22:42;1.13;;;1.08;;
14102;SDS011;7129;48.832;12.472;2022-07-26T16:27:59;3.50;;;1.40;;
14102;SDS011;7129;48.832;12.472;2022-07-26T16:33:04;1.95;;;1.23;;
14102;SDS011;7129;48.832;12.472;2022-07-26T16:38:25;1.92;;;0.82;;
14102;SDS011;7129;48.832;12.472;2022-07-26T16:43:32;12.07;;;1.50;;
14102;SDS011;7129;48.832;12.472;2022-07-26T16:49:00;3.50;;;1.15;;
14102;SDS011;7129;48.832;12.472;2022-07-26T17:00:22;3.83;;;1.20;;
14102;SDS011;7129;48.832;12.472;2022-07-26T17:05:35;1.85;;;1.02;;
14102;SDS011;7129;48.832;12.472;2022-07-26T17:11:02;1.25;;;0.90;;
14102;SDS011;7129;48.832;12.472;2022-07-26T17:35:32;3.03;;;1.10;;
14102;SDS011;7129;48.832;12.472;2022-07-26T17:40:34;2.65;;;1.10;;
14102;SDS011;7129;48.832;12.472;2022-07-26T17:45:35;3.22;;;1.00;;
14102;SDS011;7129;48.832;12.472;2022-07-26T17:50:41;5.80;;;1.65;;
14102;SDS011;7129;48.832;12.472;2022-07-26T17:55:59;4.75;;;1.33;;
14102;SDS011;7129;48.832;12.472;2022-07-26T18:01:10;6.70;;;1.50;;
14102;SDS011;7129;48.832;12.472;2022-07-26T18:06:27;3.55;;;0.90;;
14102;SDS011;7129;48.832;12.472;2022-07-26T18:11:46;1.60;;;1.00;;
14102;SDS011;7129;48.832;12.472;2022-07-26T18:16:55;2.80;;;0.95;;
14102;SDS011;7129;48.832;12.472;2022-07-26T18:21:58;1.80;;;1.13;;
14102;SDS011;7129;48.832;12.472;2022-07-26T18:27:00;8.30;;;1.20;;
14102;SDS011;7129;48.832;12.472;2022-07-26T18:32:05;40.38;;;4.35;;
14102;SDS011;7129;48.832;12.472;2022-07-26T19:00:55;1.77;;;1.10;;
14102;SDS011;7129;48.832;12.472;2022-07-26T20:09:47;1.55;;;0.95;;
14102;SDS011;7129;48.832;12.472;2022-07-26T20:15:01;4.85;;;1.15;;
14102;SDS011;7129;48.832;12.472;2022-07-26T20:20:20;3.63;;;0.90;;
14102;SDS011;7129;48.832;12.472;2022-07-26T20:25:27;3.10;;;0.80;;
14102;SDS011;7129;48.832;12.472;2022-07-26T20:30:30;0.80;;;0.80;;
14102;SDS011;7129;48.832;12.472;2022-07-26T20:35:36;1.55;;;1.13;;
14102;SDS011;7129;48.832;12.472;2022-07-26T20:41:25;1.80;;;1.00;;
14102;SDS011;7129;48.832;12.472;2022-07-26T20:48:53;2.03;;;1.00;;
14102;SDS011;7129;48.832;12.472;2022-07-26T20:52:53;1.20;;;1.10;;
14102;SDS011;7129;48.832;12.472;2022-07-26T20:58:34;2.13;;;1.35;;
14102;SDS011;7129;48.832;12.472;2022-07-26T21:03:49;4.97;;;1.60;;
14102;SDS011;7129;48.832;12.472;2022-07-26T21:09:13;1.42;;;1.08;;
14102;SDS011;7129;48.832;12.472;2022-07-26T21:14:17;1.25;;;0.90;;
14102;SDS011;7129;48.832;12.472;2022-07-26T21:19:22;3.88;;;1.23;;
14102;SDS011;7129;48.832;12.472;2022-07-26T21:24:31;1.05;;;0.93;;
14102;SDS011;7129;48.832;12.472;2022-07-26T21:29:34;1.83;;;1.48;;
14102;SDS011;7129;48.832;12.472;2022-07-26T21:34:36;2.67;;;1.02;;
14102;SDS011;7129;48.832;12.472;2022-07-26T21:39:45;1.10;;;1.00;;
14102;SDS011;7129;48.832;12.472;2022-07-26T21:44:49;4.40;;;1.10;;
14102;SDS011;7129;48.832;12.472;2022-07-26T21:49:55;6.45;;;1.20;;
14102;SDS011;7129;48.832;12.472;2022-07-26T22:57:55;1.73;;;1.30;;
14102;SDS011;7129;48.832;12.472;2022-07-26T23:03:06;1.83;;;1.20;;
14102;SDS011;7129;48.832;12.472;2022-07-26T23:08:08;1.60;;;1.30;;
14102;SDS011;7129;48.832;12.472;2022-07-26T23:13:11;1.92;;;1.38;;
14102;SDS011;7129;48.832;12.472;2022-07-26T23:18:15;2.20;;;1.60;;
14102;SDS011;7129;48.832;12.472;2022-07-26T23:23:17;1.40;;;1.30;;
14102;SDS011;7129;48.832;12.472;2022-07-26T23:28:22;1.80;;;1.27;;
14102;SDS011;7129;48.832;12.472;2022-07-26T23:33:25;3.47;;;1.50;;
14102;SDS011;7129;48.832;12.472;2022-07-26T23:38:28;1.42;;;1.05;;
14102;SDS011;7129;48.832;12.472;2022-07-26T23:49:04;1.50;;;1.40;;
14102;SDS011;7129;48.832;12.472;2022-07-26T23:54:15;2.28;;;1.40;;
14102;SDS011;7129;48.832;12.472;2022-07-26T23:59:17;3.67;;;2.25;;
